Time;durP1;ratioP1;P1;durP2;ratioP2;P2;SDS_P1;SDS_P2;PMS_P1;PMS_P2;Temp;Humidity;BMP_temperature;BMP_pressure;BME280_temperature;BME280_humidity;BME280_pressure;Samples;Min_cycle;Max_cycle;Signal;HPM_P1;HPM_P2
2023/11/19 00:01:01;;;;;;;45.20;25.00;;;;;;;7.76;100.00;103027.13;5044160;28;20187;-70
2023/11/19 00:03:26;;;;;;;38.93;23.77;;;;;;;8.09;100.00;103055.53;5041193;28;20207;-70
2023/11/19 00:05:52;;;;;;;44.33;26.13;;;;;;;7.97;100.00;103049.38;5038912;28;20195;-70
2023/11/19 00:08:18;;;;;;;33.93;23.70;;;;;;;8.09;100.00;103047.50;5041065;28;20189;-70
2023/11/19 00:10:44;;;;;;;39.60;25.30;;;;;;;8.49;100.00;103135.09;5043017;28;20181;-70
2023/11/19 00:13:10;;;;;;;37.00;25.07;;;;;;;8.53;100.00;103142.75;5038447;28;20478;-69
2023/11/19 00:15:35;;;;;;;43.30;25.30;;;;;;;8.40;100.00;103117.16;5041908;28;20662;-69
2023/11/19 00:18:04;;;;;;;35.47;24.30;;;;;;;8.54;100.00;103133.75;5046760;28;20477;-70
2023/11/19 00:20:30;;;;;;;37.43;23.87;;;;;;;8.56;100.00;103117.53;5036604;28;20190;-70
2023/11/19 00:22:55;;;;;;;32.60;22.13;;;;;;;8.32;100.00;103069.63;5046511;28;20457;-70
2023/11/19 00:25:21;;;;;;;36.07;22.83;;;;;;;8.11;100.00;103034.88;5042386;28;20821;-70
2023/11/19 00:27:47;;;;;;;30.47;21.87;;;;;;;8.76;100.00;103119.38;5041946;28;20206;-70
2023/11/19 00:30:13;;;;;;;36.73;24.13;;;;;;;8.73;100.00;103105.41;5033498;28;20558;-70
2023/11/19 00:32:39;;;;;;;41.70;23.80;;;;;;;8.79;100.00;103110.25;5042549;28;20226;-70
2023/11/19 00:35:05;;;;;;;37.73;22.40;;;;;;;8.67;100.00;103092.56;5037349;28;20470;-70
2023/11/19 00:37:32;;;;;;;41.83;24.10;;;;;;;8.34;100.00;103016.88;5041695;28;20442;-70
2023/11/19 00:39:58;;;;;;;38.57;25.53;;;;;;;8.77;100.00;103104.19;5043880;28;20438;-70
2023/11/19 00:42:27;;;;;;;35.63;23.57;;;;;;;8.83;100.00;103122.41;5038106;28;20452;-70
2023/11/19 00:44:52;;;;;;;41.93;23.40;;;;;;;8.94;100.00;103186.56;5033378;28;21067;-70
2023/11/19 00:47:21;;;;;;;34.03;23.37;;;;;;;9.04;100.00;103163.38;5039274;28;20495;-69
2023/11/19 00:49:48;;;;;;;45.47;25.53;;;;;;;9.05;100.00;103177.59;5038138;28;20192;-70
2023/11/19 00:52:15;;;;;;;37.63;22.13;;;;;;;9.10;100.00;103161.16;5036497;28;20465;-70
2023/11/19 00:54:40;;;;;;;40.90;23.67;;;;;;;8.67;100.00;103106.78;5040542;28;20443;-70
2023/11/19 00:57:05;;;;;;;34.53;21.83;;;;;;;9.07;100.00;103162.25;5043929;28;20446;-69
2023/11/19 00:59:31;;;;;;;43.43;23.67;;;;;;;9.13;100.00;103172.44;5047087;28;20623;-70
2023/11/19 01:01:56;;;;;;;37.00;23.53;;;;;;;9.00;100.00;103153.06;5050453;28;20266;-70
2023/11/19 01:04:24;;;;;;;42.43;23.93;;;;;;;9.01;100.00;103158.28;5040265;28;20218;-70
2023/11/19 01:06:49;;;;;;;45.27;25.57;;;;;;;8.94;100.00;103153.56;5040318;28;20320;-70
2023/11/19 01:09:15;;;;;;;47.50;23.23;;;;;;;9.20;100.00;103187.00;5043328;28;20904;-69
2023/11/19 01:11:40;;;;;;;40.17;24.20;;;;;;;8.93;100.00;103163.44;5040290;28;20209;-70
2023/11/19 01:14:06;;;;;;;42.53;24.20;;;;;;;8.80;100.00;103141.38;5041592;28;20257;-69
2023/11/19 01:16:31;;;;;;;37.47;22.10;;;;;;;9.15;100.00;103204.44;5047482;28;20203;-70
2023/11/19 01:18:57;;;;;;;43.93;24.00;;;;;;;9.31;100.00;103220.03;5044666;28;20760;-70
2023/11/19 01:21:22;;;;;;;40.97;24.50;;;;;;;9.36;100.00;103215.13;5036161;28;20278;-71
2023/11/19 01:23:50;;;;;;;36.47;22.80;;;;;;;9.44;100.00;103231.41;5043924;28;20211;-70
2023/11/19 01:26:16;;;;;;;41.33;23.90;;;;;;;9.29;100.00;103415.69;5043320;28;21727;-70
2023/11/19 01:28:44;;;;;;;40.77;22.30;;;;;;;9.51;100.00;103485.25;5038893;28;20437;-70
2023/11/19 01:31:11;;;;;;;41.07;23.27;;;;;;;9.57;100.00;103481.19;5047899;28;20858;-70
2023/11/19 01:33:37;;;;;;;32.63;21.70;;;;;;;9.17;100.00;103440.78;5040941;28;20431;-70
2023/11/19 01:36:04;;;;;;;42.43;23.73;;;;;;;9.46;100.00;103468.72;5042894;28;20442;-70
2023/11/19 01:38:30;;;;;;;37.80;23.30;;;;;;;9.22;100.00;103423.38;5041876;28;20183;-70
2023/11/19 01:40:57;;;;;;;41.23;23.30;;;;;;;9.81;100.00;103518.53;5041684;28;20449;-70
2023/11/19 01:43:35;;;;;;;43.93;23.20;;;;;;;9.81;100.00;103521.22;5042809;28;20473;-69
2023/11/19 01:46:03;;;;;;;44.57;23.90;;;;;;;9.78;100.00;103510.75;5041236;28;20507;-70
2023/11/19 01:48:29;;;;;;;40.60;23.77;;;;;;;9.62;100.00;103483.50;5038389;28;20512;-70
2023/11/19 01:50:56;;;;;;;42.50;22.83;;;;;;;9.53;100.00;103461.00;5043876;28;20867;-70
2023/11/19 01:53:22;;;;;;;39.97;22.20;;;;;;;9.49;100.00;103456.91;5052850;28;20482;-70
2023/11/19 01:55:48;;;;;;;41.17;22.07;;;;;;;9.90;100.00;103520.44;5060650;28;20523;-70
2023/11/19 01:58:14;;;;;;;44.40;22.90;;;;;;;9.71;100.00;103477.38;5041699;28;20869;-70
2023/11/19 02:00:40;;;;;;;52.33;23.53;;;;;;;9.87;100.00;103499.25;5044103;28;20527;-70
2023/11/19 02:03:09;;;;;;;41.40;21.50;;;;;;;10.03;100.00;103525.59;5040862;28;20472;-69
2023/11/19 02:05:35;;;;;;;40.90;22.87;;;;;;;9.99;100.00;103513.44;5046820;28;20234;-70
2023/11/19 02:08:01;;;;;;;42.53;19.27;;;;;;;10.09;100.00;103534.97;5039984;28;20442;-70
2023/11/19 02:10:27;;;;;;;38.30;19.00;;;;;;;10.13;100.00;103542.63;5065515;28;20496;-70
2023/11/19 02:12:52;;;;;;;44.23;17.13;;;;;;;10.03;100.00;103506.81;5043598;28;20474;-70
2023/11/19 02:15:24;;;;;;;32.87;16.30;;;;;;;10.34;100.00;103550.69;5043041;28;20188;-70
2023/11/19 02:17:50;;;;;;;41.43;15.67;;;;;;;10.35;100.00;103549.72;5044055;28;20194;-70
2023/11/19 02:20:16;;;;;;;31.33;14.03;;;;;;;10.32;100.00;103541.94;5037741;28;20446;-70
2023/11/19 02:22:41;;;;;;;44.90;15.83;;;;;;;10.39;100.00;103534.22;5038378;28;20473;-70
2023/11/19 02:25:17;;;;;;;41.63;12.17;;;;;;;10.54;100.00;103562.41;5039429;28;20195;-70
2023/11/19 02:27:51;;;;;;;35.40;12.30;;;;;;;10.29;100.00;103550.25;5059300;28;20183;-70
2023/11/19 02:30:16;;;;;;;49.70;11.33;;;;;;;10.45;100.00;103562.38;5038992;28;20952;-70
2023/11/19 02:32:42;;;;;;;38.40;10.90;;;;;;;10.17;100.00;103514.56;5046548;28;20479;-70
2023/11/19 02:35:08;;;;;;;36.47;9.30;;;;;;;10.35;100.00;103530.94;5045079;28;20665;-70
2023/11/19 02:37:38;;;;;;;46.90;8.90;;;;;;;10.55;100.00;103558.75;5049004;28;20439;-70
2023/11/19 02:40:05;;;;;;;35.33;8.03;;;;;;;10.23;100.00;103504.28;5038413;28;20284;-70
2023/11/19 02:42:31;;;;;;;48.17;8.80;;;;;;;10.75;100.00;103578.50;5037451;28;20473;-70
2023/11/19 02:44:56;;;;;;;38.90;7.37;;;;;;;10.35;100.00;103530.09;5044844;28;20481;-70
2023/11/19 02:47:23;;;;;;;43.13;8.00;;;;;;;10.79;100.00;103596.06;5048234;28;20445;-70
2023/11/19 02:49:49;;;;;;;41.70;7.37;;;;;;;10.55;100.00;103536.41;5043646;28;20188;-70
2023/11/19 02:52:15;;;;;;;41.83;7.77;;;;;;;10.41;100.00;103529.56;5040855;28;20531;-70
2023/11/19 02:54:42;;;;;;;32.33;6.93;;;;;;;10.60;100.00;103561.88;5037860;28;20445;-70
2023/11/19 02:57:10;;;;;;;44.30;8.10;;;;;;;10.27;100.00;103495.00;5045551;28;20271;-70
2023/11/19 02:59:41;;;;;;;38.33;6.50;;;;;;;10.90;100.00;103592.41;5042992;28;20558;-69
2023/11/19 03:02:11;;;;;;;34.30;6.90;;;;;;;10.85;100.00;103582.09;5042397;28;20847;-70
2023/11/19 03:04:38;;;;;;;38.87;7.60;;;;;;;10.54;100.00;103508.75;5046120;28;20461;-70
2023/11/19 03:07:03;;;;;;;46.57;8.83;;;;;;;11.07;100.00;103591.78;5040201;28;20949;-69
2023/11/19 03:09:29;;;;;;;50.33;7.53;;;;;;;11.05;100.00;103576.78;5043638;28;20469;-70
2023/11/19 03:11:55;;;;;;;38.33;7.20;;;;;;;11.06;100.00;103565.06;5041840;28;20301;-70
2023/11/19 03:14:20;;;;;;;40.60;7.13;;;;;;;10.70;100.00;103500.19;5040883;28;20199;-70
2023/11/19 03:16:49;;;;;;;45.97;7.77;;;;;;;10.95;100.00;103533.78;5046846;28;20270;-70
2023/11/19 03:19:15;;;;;;;34.40;7.50;;;;;;;11.19;100.00;103570.19;5034688;28;20192;-70
2023/11/19 03:21:40;;;;;;;33.10;7.07;;;;;;;11.16;100.00;103549.81;5028234;28;20473;-70
2023/11/19 03:24:06;;;;;;;41.37;8.83;;;;;;;11.16;100.00;103535.56;5030281;28;20484;-70
2023/11/19 03:26:33;;;;;;;35.10;7.97;;;;;;;10.99;100.00;103512.88;5032538;28;20191;-70
2023/11/19 03:28:59;;;;;;;37.83;7.33;;;;;;;11.15;100.00;103534.72;5030266;28;20441;-70
2023/11/19 03:31:25;;;;;;;47.53;6.77;;;;;;;10.90;100.00;103489.53;5045741;28;20511;-70
2023/11/19 03:33:50;;;;;;;47.47;6.37;;;;;;;11.01;100.00;103492.94;5041029;28;20729;-70
2023/11/19 03:36:15;;;;;;;35.40;7.27;;;;;;;11.03;100.00;103491.00;5046147;28;20196;-70
2023/11/19 03:38:42;;;;;;;42.70;7.60;;;;;;;11.29;100.00;103530.78;5032383;28;20528;-70
2023/11/19 03:41:17;;;;;;;44.53;8.37;;;;;;;11.25;100.00;103515.91;5029857;28;20542;-70
2023/11/19 03:43:42;;;;;;;41.30;9.40;;;;;;;11.31;100.00;103510.84;5036119;28;20576;-70
2023/11/19 03:46:17;;;;;;;36.33;6.57;;;;;;;11.34;100.00;103504.38;5028956;28;21075;-69
2023/11/19 03:48:43;;;;;;;35.10;6.30;;;;;;;11.30;100.00;103497.56;5038500;28;20187;-70
2023/11/19 03:51:09;;;;;;;32.83;6.27;;;;;;;11.35;100.00;103489.09;5044783;28;20463;-70
2023/11/19 03:53:35;;;;;;;45.83;6.70;;;;;;;10.81;100.00;103395.38;5040496;28;20207;-70
2023/11/19 03:56:01;;;;;;;35.03;6.97;;;;;;;10.66;100.00;103375.28;5043172;28;20184;-70
2023/11/19 03:58:26;;;;;;;52.20;7.90;;;;;;;10.72;100.00;103369.38;5038321;28;20804;-70
2023/11/19 04:00:52;;;;;;;31.83;7.00;;;;;;;11.04;100.00;103411.25;5041855;28;20192;-70
2023/11/19 04:03:19;;;;;;;27.30;6.67;;;;;;;11.24;100.00;103434.47;5035730;28;20210;-70
2023/11/19 04:05:45;;;;;;;34.83;6.57;;;;;;;11.07;100.00;103389.50;5031943;28;20190;-70
2023/11/19 04:08:10;;;;;;;39.73;6.70;;;;;;;11.29;100.00;103409.88;5040624;28;20442;-70
2023/11/19 04:10:35;;;;;;;44.07;7.73;;;;;;;11.24;100.00;103420.19;5045868;28;20871;-70
2023/11/19 04:13:01;;;;;;;35.83;6.10;;;;;;;10.80;100.00;103320.38;5040969;28;20304;-70
2023/11/19 04:15:26;;;;;;;42.23;6.03;;;;;;;11.27;100.00;103377.75;5032877;28;20184;-70
2023/11/19 04:17:52;;;;;;;35.17;6.20;;;;;;;10.70;100.00;103250.53;5035594;28;20188;-70
2023/11/19 04:20:17;;;;;;;39.80;6.67;;;;;;;11.37;100.00;103360.78;5044913;28;20237;-70
2023/11/19 04:22:43;;;;;;;33.43;6.63;;;;;;;11.19;100.00;103331.09;5040158;28;20212;-70
2023/11/19 04:25:09;;;;;;;39.93;7.27;;;;;;;11.07;100.00;103303.53;5035428;28;20968;-70
2023/11/19 04:27:34;;;;;;;43.87;6.63;;;;;;;10.64;100.00;103210.84;5042961;28;20199;-70
2023/11/19 04:30:01;;;;;;;41.70;7.93;;;;;;;11.34;100.00;103320.78;5044384;28;20197;-70
2023/11/19 04:32:27;;;;;;;42.30;7.40;;;;;;;11.00;100.00;103227.25;5042677;28;20200;-70
2023/11/19 04:34:52;;;;;;;36.43;6.70;;;;;;;11.32;100.00;103270.72;5041175;28;20528;-70
2023/11/19 04:37:18;;;;;;;40.20;6.90;;;;;;;11.39;100.00;103286.25;5039681;28;20178;-70
2023/11/19 04:39:46;;;;;;;30.90;6.73;;;;;;;11.15;100.00;103252.66;5043706;28;20191;-69
2023/11/19 04:42:12;;;;;;;35.60;7.27;;;;;;;10.97;100.00;103216.78;5039544;28;20234;-70
2023/11/19 04:44:37;;;;;;;35.03;6.77;;;;;;;11.26;100.00;103243.59;5041476;28;20474;-70
2023/11/19 04:47:03;;;;;;;42.30;7.00;;;;;;;11.32;100.00;103243.84;5037129;28;20207;-70
2023/11/19 04:49:30;;;;;;;36.23;7.67;;;;;;;11.34;100.00;103246.41;5036766;28;20233;-70
2023/11/19 04:51:55;;;;;;;37.50;8.70;;;;;;;11.39;100.00;103233.34;5039910;28;20317;-70
2023/11/19 04:54:21;;;;;;;39.43;7.07;;;;;;;11.17;100.00;103186.22;5033413;28;21015;-70
2023/11/19 04:56:47;;;;;;;39.23;7.43;;;;;;;11.32;100.00;103208.91;5036844;28;20187;-70
2023/11/19 04:59:12;;;;;;;35.03;6.40;;;;;;;11.21;100.00;103158.06;5039505;28;20184;-70
2023/11/19 05:01:38;;;;;;;32.70;7.80;;;;;;;11.27;100.00;103164.69;5041428;28;20742;-70
2023/11/19 05:04:03;;;;;;;49.40;7.17;;;;;;;11.33;100.00;103145.28;5041690;28;20206;-70
2023/11/19 05:06:30;;;;;;;36.13;6.20;;;;;;;10.99;100.00;103075.13;5040993;28;20208;-70
2023/11/19 05:09:07;;;;;;;31.60;7.10;;;;;;;11.29;100.00;103108.97;5046779;28;20601;-70
2023/11/19 05:11:34;;;;;;;34.90;7.27;;;;;;;11.39;100.00;103112.44;5041071;28;20576;-70
2023/11/19 05:14:01;;;;;;;41.13;8.40;;;;;;;10.95;100.00;103010.16;5034885;28;21329;-70
2023/11/19 05:16:26;;;;;;;38.77;8.27;;;;;;;11.40;100.00;103071.16;5044151;28;20438;-75
2023/11/19 05:18:52;;;;;;;43.37;7.83;;;;;;;11.28;100.00;103026.66;5048669;28;20439;-75
2023/11/19 05:21:17;;;;;;;37.10;7.40;;;;;;;11.02;100.00;102967.44;5038266;28;20187;-74
2023/11/19 05:23:43;;;;;;;34.73;6.47;;;;;;;11.29;100.00;102988.91;5042749;28;20580;-74
2023/11/19 05:26:10;;;;;;;37.27;6.77;;;;;;;11.40;100.00;102957.44;5038939;28;20559;-76
2023/11/19 05:28:39;;;;;;;40.33;8.60;;;;;;;11.06;100.00;102875.69;5042395;28;20191;-74
2023/11/19 05:31:05;;;;;;;31.40;6.57;;;;;;;10.91;100.00;102828.88;5040415;28;20488;-75
2023/11/19 05:33:31;;;;;;;33.07;6.83;;;;;;;10.90;100.00;102775.31;5058034;28;20725;-74
2023/11/19 05:35:57;;;;;;;41.53;7.80;;;;;;;11.12;100.00;102757.91;5044452;28;20987;-74
2023/11/19 05:38:22;;;;;;;32.90;6.90;;;;;;;11.05;100.00;102696.75;5044670;28;20202;-74
2023/11/19 05:40:48;;;;;;;38.00;7.70;;;;;;;11.29;100.00;102673.75;5042154;28;20202;-76
2023/11/19 05:43:14;;;;;;;43.13;8.00;;;;;;;10.77;100.00;102536.81;5040378;28;20211;-75
2023/11/19 05:45:40;;;;;;;32.63;6.37;;;;;;;11.29;100.00;102585.09;5040754;28;20183;-75
2023/11/19 05:48:05;;;;;;;37.97;6.83;;;;;;;10.46;100.00;102419.25;5039302;28;20484;-75
2023/11/19 05:50:31;;;;;;;39.73;7.50;;;;;;;10.90;100.00;102431.69;5040669;28;20204;-75
2023/11/19 05:52:56;;;;;;;35.50;7.33;;;;;;;10.59;100.00;102349.91;5037543;28;20681;-74
2023/11/19 05:55:23;;;;;;;37.27;7.23;;;;;;;11.20;100.00;102422.22;5035511;28;20690;-75
2023/11/19 05:57:48;;;;;;;38.30;6.93;;;;;;;11.04;100.00;102394.31;5038666;28;20191;-74
2023/11/19 06:00:15;;;;;;;40.10;6.40;;;;;;;11.27;100.00;102393.69;5034997;28;20435;-75
2023/11/19 06:02:40;;;;;;;29.63;6.80;;;;;;;11.22;100.00;102375.38;5045874;28;20658;-75
2023/11/19 06:05:06;;;;;;;43.40;7.07;;;;;;;11.14;100.00;102361.09;5038865;28;20467;-73
2023/11/19 06:07:36;;;;;;;39.20;7.20;;;;;;;10.81;100.00;102305.50;5038829;28;20188;-73
2023/11/19 06:10:05;;;;;;;42.63;7.90;;;;;;;10.76;100.00;102262.22;5041908;28;20250;-73
2023/11/19 06:12:31;;;;;;;39.90;7.33;;;;;;;11.24;100.00;102313.44;5039776;28;20593;-73
2023/11/19 06:14:57;;;;;;;43.73;8.70;;;;;;;11.23;100.00;102285.75;5040249;28;20437;-73
2023/11/19 06:17:22;;;;;;;37.17;7.33;;;;;;;10.96;100.00;102246.63;5038746;28;20434;-73
2023/11/19 06:19:48;;;;;;;39.43;7.60;;;;;;;11.05;100.00;102234.91;5043001;28;20183;-73
2023/11/19 06:22:13;;;;;;;42.17;7.80;;;;;;;11.01;100.00;102246.97;5037172;28;20200;-73
2023/11/19 06:24:38;;;;;;;37.30;7.23;;;;;;;11.25;100.00;102246.16;5054243;28;20214;-72
2023/11/19 06:27:04;;;;;;;48.90;8.20;;;;;;;11.07;100.00;102224.81;5038348;28;20350;-75
2023/11/19 06:29:29;;;;;;;34.80;6.30;;;;;;;10.77;100.00;102142.28;5041975;28;20242;-75
2023/11/19 06:31:55;;;;;;;36.50;7.43;;;;;;;11.06;100.00;102187.41;5040991;28;20227;-75
2023/11/19 06:34:20;;;;;;;52.43;8.87;;;;;;;10.77;100.00;102150.34;5040916;28;20203;-73
2023/11/19 06:36:46;;;;;;;34.73;6.93;;;;;;;11.06;100.00;102198.16;5040960;28;20187;-73
2023/11/19 06:39:12;;;;;;;47.00;6.70;;;;;;;11.01;100.00;102171.78;5039744;28;20274;-73
2023/11/19 06:41:40;;;;;;;43.87;8.43;;;;;;;10.80;100.00;102123.16;5043053;28;20204;-73
2023/11/19 06:44:05;;;;;;;34.63;7.57;;;;;;;11.14;100.00;102175.78;5043352;28;20490;-73
2023/11/19 06:46:31;;;;;;;36.70;7.23;;;;;;;11.15;100.00;102166.75;5062049;28;20465;-73
2023/11/19 06:48:57;;;;;;;40.63;7.27;;;;;;;11.09;100.00;102161.03;5046028;28;20611;-73
2023/11/19 06:51:24;;;;;;;34.83;7.70;;;;;;;10.86;100.00;102104.53;5043872;28;20183;-73
2023/11/19 06:53:49;;;;;;;39.17;7.30;;;;;;;11.07;100.00;102144.25;5054085;28;20512;-73
2023/11/19 06:56:22;;;;;;;45.63;8.33;;;;;;;10.65;100.00;102087.28;5043619;28;20521;-73
2023/11/19 06:58:48;;;;;;;33.83;7.40;;;;;;;11.17;100.00;102137.88;5036282;28;20176;-73
2023/11/19 07:01:18;;;;;;;39.80;7.70;;;;;;;11.03;100.00;102108.03;5033793;28;20964;-73
2023/11/19 07:03:47;;;;;;;39.60;7.23;;;;;;;10.92;100.00;102115.59;5040580;28;20468;-73
2023/11/19 07:06:15;;;;;;;34.40;7.30;;;;;;;10.73;100.00;102088.13;5038687;28;20446;-73
2023/11/19 07:08:44;;;;;;;39.93;7.33;;;;;;;10.84;100.00;102092.28;5047360;28;20464;-72
2023/11/19 07:11:11;;;;;;;44.27;8.77;;;;;;;10.39;100.00;102018.56;5044799;28;20429;-73
2023/11/19 07:13:37;;;;;;;43.40;7.20;;;;;;;10.72;100.00;102078.38;5043353;28;20433;-72
2023/11/19 07:16:03;;;;;;;45.53;8.30;;;;;;;10.74;100.00;102072.84;5040358;28;20515;-73
2023/11/19 07:18:29;;;;;;;44.87;7.73;;;;;;;10.91;100.00;102097.84;5045756;28;20803;-73
2023/11/19 07:20:55;;;;;;;33.60;7.70;;;;;;;10.52;100.00;102043.00;5042438;28;20419;-73
2023/11/19 07:23:21;;;;;;;35.90;8.23;;;;;;;10.55;100.00;102057.94;5044855;28;20211;-73
2023/11/19 07:25:48;;;;;;;37.87;7.97;;;;;;;10.77;100.00;102065.28;5043440;28;20445;-73
2023/11/19 07:28:14;;;;;;;42.80;8.80;;;;;;;10.75;100.00;102072.66;5044990;28;20466;-73
2023/11/19 07:30:39;;;;;;;30.40;7.70;;;;;;;10.94;100.00;102097.50;5035930;28;20453;-73
2023/11/19 07:33:05;;;;;;;40.83;6.97;;;;;;;10.01;100.00;101953.00;5053057;22;20869;-76
2023/11/19 07:35:31;;;;;;;44.03;7.83;;;;;;;8.39;100.00;101680.47;5004127;28;20199;-76
2023/11/19 07:37:57;;;;;;;38.43;7.40;;;;;;;9.27;100.00;101854.69;5008538;28;20185;-75
2023/11/19 07:40:24;;;;;;;40.13;7.20;;;;;;;8.81;100.00;101770.47;5006751;28;20809;-76
2023/11/19 07:42:49;;;;;;;40.40;7.73;;;;;;;8.16;100.00;101658.84;5004558;28;20441;-76
2023/11/19 07:45:16;;;;;;;37.33;7.17;;;;;;;9.65;100.00;101903.25;5006307;28;20455;-75
2023/11/19 07:47:42;;;;;;;38.03;7.63;;;;;;;8.45;100.00;101690.53;5011858;28;20436;-75
2023/11/19 07:50:09;;;;;;;37.90;7.33;;;;;;;9.26;100.00;101834.28;5006872;28;20432;-75
2023/11/19 07:52:35;;;;;;;52.43;8.90;;;;;;;8.87;100.00;101767.13;5006702;28;20438;-76
2023/11/19 07:55:01;;;;;;;50.23;7.77;;;;;;;9.23;100.00;101823.91;5006299;28;20459;-76
2023/11/19 07:57:30;;;;;;;37.23;8.33;;;;;;;9.26;100.00;101831.59;5006659;28;20250;-76
2023/11/19 07:59:55;;;;;;;38.83;8.00;;;;;;;8.92;100.00;101734.56;5007894;28;20471;-76
2023/11/19 08:02:21;;;;;;;37.83;8.13;;;;;;;9.25;100.00;101813.00;5009824;28;20991;-76
2023/11/19 08:04:49;;;;;;;41.93;7.60;;;;;;;9.09;100.00;101816.53;5005022;28;20592;-76
2023/11/19 08:07:15;;;;;;;36.10;6.70;;;;;;;8.40;100.00;101662.59;4999129;28;20440;-75
2023/11/19 08:09:40;;;;;;;38.73;7.10;;;;;;;8.85;100.00;101760.28;5008151;28;20479;-75
2023/11/19 08:12:06;;;;;;;37.23;7.33;;;;;;;8.12;100.00;101625.41;5001952;28;20983;-76
2023/11/19 08:14:33;;;;;;;41.00;8.87;;;;;;;9.30;100.00;101807.16;5005979;28;20236;-76
2023/11/19 08:16:58;;;;;;;44.60;10.07;;;;;;;8.05;100.00;101595.00;5009770;28;20452;-76
2023/11/19 08:19:24;;;;;;;40.90;9.03;;;;;;;8.33;100.00;101665.91;5006127;28;20196;-76
2023/11/19 08:21:49;;;;;;;37.77;6.60;;;;;;;9.15;100.00;101799.78;5009373;28;20614;-76
2023/11/19 08:24:15;;;;;;;44.93;7.87;;;;;;;9.15;100.00;101807.81;5008385;28;20678;-76
2023/11/19 08:26:41;;;;;;;56.40;8.87;;;;;;;9.23;100.00;101813.19;5006208;28;20177;-76
2023/11/19 08:29:06;;;;;;;43.17;8.30;;;;;;;9.30;100.00;101823.22;5007051;28;20181;-75
2023/11/19 08:31:32;;;;;;;32.03;6.90;;;;;;;9.84;100.00;101917.34;5004631;28;20991;-76
2023/11/19 08:33:57;;;;;;;33.50;7.37;;;;;;;9.40;100.00;101864.91;5004049;28;20217;-75
2023/11/19 08:36:23;;;;;;;45.60;8.93;;;;;;;8.69;100.00;101712.94;5007555;28;20184;-75
2023/11/19 08:38:48;;;;;;;38.60;7.43;;;;;;;8.99;100.00;101805.13;5009761;28;20255;-76
2023/11/19 08:41:14;;;;;;;40.93;8.30;;;;;;;8.32;100.00;101645.50;5008189;28;20204;-76
2023/11/19 08:43:40;;;;;;;51.47;9.00;;;;;;;9.00;100.00;101783.56;5007326;28;20745;-75
2023/11/19 08:46:10;;;;;;;38.93;7.20;;;;;;;9.46;100.00;101848.19;5006506;28;20235;-75
2023/11/19 08:48:36;;;;;;;48.67;8.20;;;;;;;8.58;100.00;101672.13;5008121;28;20988;-76
2023/11/19 08:51:01;;;;;;;34.63;7.90;;;;;;;9.18;100.00;101796.78;5004674;28;20531;-75
2023/11/19 08:53:26;;;;;;;36.93;7.50;;;;;;;9.71;100.00;101866.91;5007681;28;20212;-76
2023/11/19 08:55:52;;;;;;;41.17;8.47;;;;;;;10.38;100.00;101976.63;5006708;28;20280;-75
2023/11/19 08:58:18;;;;;;;34.97;7.07;;;;;;;8.15;100.00;101582.31;5008287;28;20187;-76
2023/11/19 09:00:43;;;;;;;31.03;6.33;;;;;;;8.97;100.00;101700.09;5008340;28;20188;-76
2023/11/19 09:03:09;;;;;;;43.13;9.50;;;;;;;8.78;100.00;101701.25;5005990;28;20209;-76
2023/11/19 09:05:35;;;;;;;39.43;7.10;;;;;;;8.41;100.00;101616.97;5005093;28;20186;-76
2023/11/19 09:08:00;;;;;;;32.77;6.93;;;;;;;8.79;100.00;101682.38;5006556;28;20193;-75
2023/11/19 09:10:26;;;;;;;34.70;7.30;;;;;;;9.00;100.00;101722.00;5007524;28;20201;-76
2023/11/19 09:12:52;;;;;;;41.80;7.00;;;;;;;10.92;100.00;102019.78;5016850;28;20638;-76
2023/11/19 09:15:18;;;;;;;38.57;6.90;;;;;;;8.50;100.00;101642.72;5002132;28;20473;-76
2023/11/19 09:17:43;;;;;;;39.20;7.50;;;;;;;7.97;100.00;101562.94;5004312;28;20292;-77
2023/11/19 09:20:12;;;;;;;44.07;8.33;;;;;;;9.03;100.00;101759.16;5010208;28;20185;-76
2023/11/19 09:22:37;;;;;;;50.17;8.60;;;;;;;9.94;100.00;101889.34;5003000;28;20244;-76
2023/11/19 09:25:05;;;;;;;45.07;7.13;;;;;;;8.87;100.00;101715.47;5006556;28;20945;-76
2023/11/19 09:27:30;;;;;;;49.57;8.10;;;;;;;9.01;100.00;101785.22;5007925;28;20188;-76
2023/11/19 09:29:58;;;;;;;40.20;7.10;;;;;;;9.26;100.00;101807.50;5002991;28;20439;-76
2023/11/19 09:32:23;;;;;;;38.97;7.90;;;;;;;9.07;100.00;101762.31;5005778;28;20673;-76
2023/11/19 09:34:49;;;;;;;40.30;7.83;;;;;;;8.82;100.00;101707.94;5004900;28;20491;-76
2023/11/19 09:37:14;;;;;;;48.57;8.00;;;;;;;8.42;100.00;101632.03;5004736;28;20181;-76
2023/11/19 09:39:43;;;;;;;47.20;7.33;;;;;;;8.76;100.00;101722.81;5005009;28;20204;-77
2023/11/19 09:42:09;;;;;;;38.60;7.07;;;;;;;9.22;100.00;101755.28;5006056;28;20220;-76
2023/11/19 09:44:38;;;;;;;43.83;8.30;;;;;;;9.83;100.00;101867.41;5005534;28;20471;-76
2023/11/19 09:47:04;;;;;;;38.37;8.03;;;;;;;8.53;100.00;101618.34;5006786;28;20519;-75
2023/11/19 09:49:30;;;;;;;55.20;8.90;;;;;;;8.98;100.00;101707.13;5003378;28;20439;-75
2023/11/19 09:51:55;;;;;;;46.00;8.60;;;;;;;9.22;100.00;101704.41;5004619;28;20459;-76
2023/11/19 09:54:21;;;;;;;47.47;8.20;;;;;;;8.64;100.00;101606.47;5005555;28;20208;-76
2023/11/19 09:56:47;;;;;;;36.20;6.93;;;;;;;9.36;100.00;101753.78;5005671;28;20189;-76
2023/11/19 09:59:14;;;;;;;38.43;7.40;;;;;;;8.54;100.00;101613.81;5003795;28;20189;-75
2023/11/19 10:01:39;;;;;;;47.27;8.73;;;;;;;8.92;100.00;101692.56;5007078;28;20440;-76
2023/11/19 10:04:06;;;;;;;43.40;8.40;;;;;;;8.78;100.00;101621.84;5005468;28;20498;-76
2023/11/19 10:06:32;;;;;;;33.20;7.40;;;;;;;8.70;100.00;101605.78;5005921;28;20181;-76
2023/11/19 10:08:59;;;;;;;52.93;10.10;;;;;;;9.30;100.00;101657.25;5007168;28;20485;-76
2023/11/19 10:11:25;;;;;;;40.90;7.20;;;;;;;9.50;100.00;101671.94;5003734;28;20465;-75
2023/11/19 10:13:53;;;;;;;39.83;7.90;;;;;;;9.15;100.00;101576.81;5000719;28;20457;-76
2023/11/19 10:16:18;;;;;;;40.50;6.90;;;;;;;10.25;100.00;101777.88;5004806;28;20192;-77
2023/11/19 10:18:49;;;;;;;42.17;8.00;;;;;;;9.09;100.00;101543.53;5008419;28;20472;-77
2023/11/19 10:21:18;;;;;;;34.53;7.70;;;;;;;9.06;100.00;101533.19;5003369;28;20197;-76
2023/11/19 10:24:02;;;;;;;35.37;7.23;;;;;;;9.24;100.00;101562.38;5004602;28;20471;-76
2023/11/19 10:26:28;;;;;;;45.77;8.10;;;;;;;9.85;100.00;101669.81;5001253;28;20948;-75
2023/11/19 10:28:55;;;;;;;38.90;7.17;;;;;;;9.34;100.00;101640.66;5003870;28;20440;-76
2023/11/19 10:31:24;;;;;;;47.23;8.57;;;;;;;10.14;100.00;101755.78;5005721;28;20436;-76
2023/11/19 10:33:51;;;;;;;50.93;8.20;;;;;;;10.37;100.00;101822.94;5020152;28;20489;-76
2023/11/19 10:36:17;;;;;;;41.97;8.10;;;;;;;9.39;100.00;101629.44;5005295;28;20439;-77
2023/11/19 10:38:56;;;;;;;34.67;6.90;;;;;;;10.12;100.00;101762.31;5008079;28;20481;-76
2023/11/19 10:41:32;;;;;;;31.33;7.23;;;;;;;9.24;100.00;101587.31;5005861;28;20471;-76
2023/11/19 10:43:58;;;;;;;37.30;8.00;;;;;;;9.21;100.00;101579.63;5005933;28;20477;-77
2023/11/19 10:46:36;;;;;;;30.57;7.63;;;;;;;9.17;100.00;101567.59;5005637;28;20442;-76
2023/11/19 10:49:02;;;;;;;39.10;7.60;;;;;;;11.41;100.00;101951.63;5003105;28;20440;-76
2023/11/19 10:51:29;;;;;;;38.73;6.90;;;;;;;10.16;100.00;101712.72;5008147;28;20440;-75
2023/11/19 10:54:01;;;;;;;32.87;7.60;;;;;;;10.05;100.00;101729.19;5003566;28;20208;-76
2023/11/19 10:56:30;;;;;;;30.50;8.20;;;;;;;10.05;100.00;101692.50;5000533;28;20479;-75
2023/11/19 10:58:59;;;;;;;31.23;6.57;;;;;;;8.89;100.00;101489.56;5003805;28;20473;-75
2023/11/19 11:01:31;;;;;;;32.83;7.37;;;;;;;9.36;100.00;101561.00;5002368;28;20448;-75
2023/11/19 11:04:00;;;;;;;33.20;8.50;;;;;;;9.97;100.00;101617.47;5005640;28;20482;-75
2023/11/19 11:06:27;;;;;;;40.83;8.67;;;;;;;9.93;100.00;101618.84;5004552;28;20827;-76
2023/11/19 11:08:54;;;;;;;46.13;11.17;;;;;;;9.76;100.00;101558.31;5006413;28;20436;-76